createdAt,value
2019-03-08T00:00:42.115Z,98149.05
2019-03-08T00:06:00.678Z,98151.92
2019-03-08T00:11:19.341Z,98164.87
2019-03-08T00:16:37.945Z,98165.03
2019-03-08T00:21:56.559Z,98184.91
2019-03-08T00:27:15.123Z,98172.16
2019-03-08T00:32:33.664Z,98206.18
2019-03-08T00:37:52.470Z,98203.41
2019-03-08T00:43:11.030Z,98223.83
2019-03-08T00:48:29.573Z,98223.83
2019-03-08T00:53:48.142Z,98231.78
2019-03-08T00:59:06.735Z,98229.21
2019-03-08T01:04:25.265Z,98232.22
2019-03-08T01:09:43.803Z,98237.80
2019-03-08T01:15:02.422Z,98245.94
2019-03-08T01:20:21.081Z,98252.22
2019-03-08T01:25:39.696Z,98252.22
2019-03-08T01:30:58.201Z,98264.22
2019-03-08T01:36:16.765Z,98272.26
2019-03-08T01:41:35.399Z,98280.22
2019-03-08T01:46:53.921Z,98282.68
2019-03-08T01:52:12.466Z,98293.52
2019-03-08T01:57:30.948Z,98299.53
2019-03-08T02:02:49.856Z,98310.27
2019-03-08T02:08:08.676Z,98312.02
2019-03-08T02:13:27.293Z,98319.97
2019-03-08T02:18:45.912Z,98329.63
2019-03-08T02:24:04.606Z,98334.58
2019-03-08T02:29:23.146Z,98338.03
2019-03-08T02:34:41.606Z,98336.25
2019-03-08T02:40:00.072Z,98343.03
2019-03-08T02:45:18.766Z,98340.91
2019-03-08T02:50:37.307Z,98350.31
2019-03-08T02:55:55.909Z,98360.54
2019-03-08T03:01:14.537Z,98370.38
2019-03-08T03:06:33.096Z,98382.46
2019-03-08T03:11:51.658Z,98397.26
2019-03-08T03:17:10.275Z,98401.48
2019-03-08T03:22:28.897Z,98415.69
2019-03-08T03:27:47.520Z,98435.56
2019-03-08T03:33:06.181Z,98448.22
2019-03-08T03:38:24.709Z,98451.21
2019-03-08T03:43:43.312Z,98448.88
2019-03-08T03:49:01.925Z,98473.50
2019-03-08T03:54:20.700Z,98486.67
2019-03-08T03:59:39.308Z,98484.37
2019-03-08T04:04:58.156Z,98504.11
2019-03-08T04:10:17.749Z,98511.70
2019-03-08T04:15:36.338Z,98517.47
2019-03-08T04:20:55.042Z,98525.46
2019-03-08T04:26:13.663Z,98529.63
2019-03-08T04:31:32.226Z,98553.49
2019-03-08T04:36:50.718Z,98564.02
2019-03-08T04:42:09.328Z,98568.28
2019-03-08T04:47:27.868Z,98576.17
2019-03-08T04:52:46.408Z,98582.44
2019-03-08T04:58:04.889Z,98588.91
2019-03-08T05:03:23.353Z,98602.66
2019-03-08T05:08:41.953Z,98615.00
2019-03-08T05:14:00.567Z,98616.73
2019-03-08T05:19:19.185Z,98619.77
2019-03-08T05:24:38.071Z,98634.14
2019-03-08T05:29:57.302Z,98628.87
2019-03-08T05:35:19.485Z,98646.38
2019-03-08T05:40:38.449Z,98672.53
2019-03-08T05:45:57.123Z,98672.53
2019-03-08T05:51:15.755Z,98682.16
2019-03-08T05:56:34.359Z,98696.86
2019-03-08T06:01:52.990Z,98708.78
2019-03-08T06:07:11.587Z,98725.38
2019-03-08T06:12:30.133Z,98750.73
2019-03-08T06:17:48.764Z,98760.05
2019-03-08T06:23:07.566Z,98780.17
2019-03-08T06:28:26.186Z,98790.69
2019-03-08T06:33:44.876Z,98793.92
2019-03-08T06:39:04.809Z,98807.63
2019-03-08T06:44:23.430Z,98827.39
2019-03-08T06:49:41.972Z,98852.94
2019-03-08T06:55:00.816Z,98862.17
2019-03-08T07:00:37.856Z,98878.81
2019-03-08T07:05:56.545Z,98897.16
2019-03-08T07:11:15.295Z,98918.82
2019-03-08T07:16:33.949Z,98926.43
2019-03-08T07:21:54.456Z,98948.20
2019-03-08T07:27:23.413Z,98955.48
2019-03-08T07:32:43.640Z,98970.15
2019-03-08T07:38:06.404Z,98998.56
2019-03-08T07:43:29.773Z,99010.73
2019-03-08T07:48:56.097Z,99022.90
2019-03-08T07:54:22.143Z,99034.19
2019-03-08T07:59:53.706Z,99050.20
2019-03-08T08:05:27.006Z,99055.94
2019-03-08T08:10:47.256Z,99078.05
2019-03-08T08:16:07.515Z,99086.64
2019-03-08T08:21:33.264Z,99096.45
2019-03-08T08:27:09.900Z,99108.33
2019-03-08T08:32:36.139Z,99127.07
2019-03-08T08:38:05.148Z,99129.00
2019-03-08T08:43:43.940Z,99147.45
2019-03-08T08:49:20.553Z,99156.70
2019-03-08T08:54:44.141Z,99168.53
2019-03-08T09:00:10.922Z,99183.92
2019-03-08T09:05:31.340Z,99196.20
2019-03-08T09:10:51.655Z,99198.53
2019-03-08T09:16:11.911Z,99201.25
2019-03-08T09:21:32.937Z,99211.41
2019-03-08T09:27:05.115Z,99214.77
2019-03-08T09:32:25.385Z,99225.77
2019-03-08T09:38:02.056Z,99236.30
2019-03-08T09:43:25.030Z,99240.53
2019-03-08T09:48:48.673Z,99246.98
2019-03-08T09:54:10.407Z,99261.27
2019-03-08T09:59:36.789Z,99262.84
2019-03-08T10:04:59.894Z,99276.59
2019-03-08T10:10:35.505Z,99284.34
2019-03-08T10:15:58.355Z,99291.66
2019-03-08T10:21:24.505Z,99296.29
2019-03-08T10:26:44.698Z,99314.84
2019-03-08T10:32:04.879Z,99314.30
2019-03-08T10:37:41.240Z,99328.28
2019-03-08T10:43:01.521Z,99340.68
2019-03-08T10:48:27.916Z,99349.12
2019-03-08T10:53:50.877Z,99353.98
2019-03-08T10:59:16.883Z,99372.94
2019-03-08T11:04:40.333Z,99382.00
2019-03-08T11:10:03.884Z,99400.11
2019-03-08T11:15:33.310Z,99433.12
2019-03-08T11:20:53.628Z,99438.61
2019-03-08T11:26:21.030Z,99435.03
2019-03-08T11:31:41.226Z,99439.27
2019-03-08T11:37:04.251Z,99447.95
2019-03-08T11:42:24.943Z,99453.81
2019-03-08T11:47:52.028Z,99454.03
2019-03-08T11:53:24.514Z,99457.99
2019-03-08T11:58:47.902Z,99462.45
2019-03-08T12:04:24.496Z,99462.17
2019-03-08T12:09:50.431Z,99463.72
2019-03-08T12:15:29.759Z,99463.75
2019-03-08T12:20:50.216Z,99471.25
2019-03-08T12:26:10.516Z,99466.80
2019-03-08T12:31:33.900Z,99457.74
2019-03-08T12:37:12.204Z,99459.69
2019-03-08T12:42:49.109Z,99466.29
2019-03-08T12:48:23.977Z,99462.95
2019-03-08T12:53:55.310Z,99461.09
2019-03-08T12:59:34.033Z,99452.94
2019-03-08T13:04:54.236Z,99463.28
2019-03-08T13:10:16.564Z,99463.04
2019-03-08T13:15:35.463Z,99463.42
2019-03-08T13:20:54.032Z,99464.19
2019-03-08T13:26:12.587Z,99467.78
2019-03-08T13:31:31.231Z,99468.35
2019-03-08T13:36:49.921Z,99464.69
2019-03-08T13:42:08.535Z,99472.48
2019-03-08T13:47:27.093Z,99481.34
2019-03-08T13:52:45.707Z,99476.13
2019-03-08T13:58:04.326Z,99478.58
2019-03-08T14:03:22.956Z,99496.21
2019-03-08T14:08:41.489Z,99490.70
2019-03-08T14:14:00.051Z,99488.64
2019-03-08T14:19:18.673Z,99494.48
2019-03-08T14:24:37.250Z,99496.34
2019-03-08T14:29:59.204Z,99489.14
2019-03-08T14:35:19.118Z,99488.84
2019-03-08T14:40:48.217Z,99487.34
2019-03-08T14:46:08.470Z,99491.73
2019-03-08T14:51:27.014Z,99496.30
2019-03-08T14:56:45.549Z,99498.13
2019-03-08T15:02:04.249Z,99498.16
2019-03-08T15:07:22.864Z,99504.14
2019-03-08T15:12:49.229Z,99514.23
2019-03-08T15:18:01.615Z,99506.48
2019-03-08T15:23:20.510Z,99503.95
2019-03-08T15:28:39.042Z,99507.52
2019-03-08T15:33:57.691Z,99507.63
2019-03-08T15:39:16.487Z,99511.28
2019-03-08T15:44:39.007Z,99514.75
2019-03-08T15:49:57.592Z,99511.46
2019-03-08T15:55:16.211Z,99509.72
2019-03-08T16:00:34.750Z,99504.74
2019-03-08T16:05:53.399Z,99499.81
2019-03-08T16:11:12.006Z,99506.15
2019-03-08T16:16:32.158Z,99491.34
2019-03-08T16:21:52.029Z,99491.34
2019-03-08T16:27:10.654Z,99491.16
2019-03-08T16:32:39.734Z,99484.31
2019-03-08T16:38:14.770Z,99475.55
2019-03-08T16:43:56.794Z,99483.48
2019-03-08T16:49:22.370Z,99475.09
2019-03-08T17:00:17.162Z,99456.73
2019-03-08T17:05:37.456Z,99456.57
2019-03-08T17:11:03.765Z,99446.47
2019-03-08T17:16:36.150Z,99447.41
2019-03-08T17:22:11.772Z,99449.30
2019-03-08T17:27:34.481Z,99455.64
2019-03-08T17:33:10.747Z,99463.03
2019-03-08T17:38:32.360Z,99467.13
2019-03-08T17:43:55.538Z,99466.55
2019-03-08T17:49:21.552Z,99467.98
2019-03-08T17:54:44.935Z,99473.13
2019-03-08T18:00:16.320Z,99481.09
2019-03-08T18:05:48.727Z,99481.31
2019-03-08T18:11:18.011Z,99481.88
2019-03-08T18:16:54.377Z,99493.05
2019-03-08T18:22:21.024Z,99491.19
2019-03-08T18:27:47.671Z,99480.41
2019-03-08T18:33:19.804Z,99489.17
2019-03-08T18:38:45.948Z,99483.97
2019-03-08T18:44:12.062Z,99481.92
2019-03-08T18:49:32.453Z,99479.91
2019-03-08T18:54:52.713Z,99473.52
2019-03-08T19:00:14.203Z,99481.94
2019-03-08T19:05:34.385Z,99481.68
2019-03-08T19:10:54.561Z,99480.38
2019-03-08T19:16:14.816Z,99476.17
2019-03-08T19:21:37.754Z,99476.73
2019-03-08T19:27:01.220Z,99485.59
2019-03-08T19:32:21.442Z,99474.93
2019-03-08T19:37:57.780Z,99476.91
2019-03-08T19:43:18.367Z,99473.78
2019-03-08T19:48:47.426Z,99465.34
2019-03-08T19:54:16.465Z,99466.89
2019-03-08T19:59:46.246Z,99450.02
2019-03-08T20:05:16.814Z,99449.02
2019-03-08T20:10:39.982Z,99444.05
2019-03-08T20:16:15.548Z,99436.64
2019-03-08T20:21:38.556Z,99429.55
2019-03-08T20:26:58.815Z,99435.27
2019-03-08T20:32:27.937Z,99434.63
2019-03-08T20:37:50.966Z,99425.72
2019-03-08T20:43:17.154Z,99414.70
2019-03-08T20:48:35.781Z,99410.81
2019-03-08T20:53:54.336Z,99403.92
2019-03-08T20:59:13.059Z,99396.39
2019-03-08T21:04:33.093Z,99388.00
2019-03-08T21:09:52.090Z,99388.50
2019-03-08T21:15:12.871Z,99374.20
2019-03-08T21:20:31.785Z,99372.62
2019-03-08T21:25:50.761Z,99368.60
2019-03-08T21:31:09.988Z,99352.34
2019-03-08T21:36:28.762Z,99355.16
2019-03-08T21:41:48.063Z,99353.30
2019-03-08T21:47:08.181Z,99346.50
2019-03-08T21:52:28.852Z,99331.35
2019-03-08T21:57:47.146Z,99319.89
2019-03-08T22:03:05.783Z,99294.44
2019-03-08T22:08:24.398Z,99298.91
2019-03-08T22:13:42.938Z,99286.70
2019-03-08T22:19:01.499Z,99272.32
2019-03-08T22:24:20.073Z,99258.45
2019-03-08T22:29:38.554Z,99255.84
2019-03-08T22:34:57.174Z,99239.28
2019-03-08T22:40:15.995Z,99241.89
2019-03-08T22:45:34.742Z,99241.00
2019-03-08T22:50:54.826Z,99235.97
2019-03-08T22:56:13.450Z,99223.63
2019-03-08T23:01:33.695Z,99216.22
2019-03-08T23:06:52.234Z,99219.10
2019-03-08T23:12:10.953Z,99217.04
2019-03-08T23:17:29.491Z,99211.38
2019-03-08T23:22:48.033Z,99182.03
2019-03-08T23:28:24.478Z,99186.66
2019-03-08T23:33:43.087Z,99166.60
2019-03-08T23:39:01.710Z,99154.55
2019-03-08T23:44:20.273Z,99150.02
2019-03-08T23:49:38.840Z,99124.95
2019-03-08T23:54:57.403Z,99117.94
